createdAt,value
2016-10-06T00:00:56.616Z,0
2016-10-06T00:02:07.340Z,0
2016-10-06T00:03:18.073Z,0
2016-10-06T00:04:28.850Z,0
2016-10-06T00:05:39.571Z,0
2016-10-06T00:06:50.319Z,0
2016-10-06T00:08:01.054Z,0
2016-10-06T00:09:12.141Z,0
2016-10-06T00:10:22.898Z,0
2016-10-06T00:11:33.645Z,0
2016-10-06T00:12:44.378Z,0
2016-10-06T00:13:55.102Z,0
2016-10-06T00:15:05.853Z,0
2016-10-06T00:16:16.557Z,0
2016-10-06T00:17:27.284Z,0
2016-10-06T00:18:37.996Z,0
2016-10-06T00:19:48.738Z,0
2016-10-06T00:20:59.445Z,0
2016-10-06T00:22:10.206Z,0
2016-10-06T00:23:20.960Z,0
2016-10-06T00:24:31.662Z,0
2016-10-06T00:25:42.418Z,0
2016-10-06T00:26:53.167Z,0
2016-10-06T00:28:03.888Z,0
2016-10-06T00:29:14.608Z,0
2016-10-06T00:30:25.310Z,0
2016-10-06T00:31:36.031Z,0
2016-10-06T00:32:46.762Z,0
2016-10-06T00:33:57.501Z,0
2016-10-06T00:35:08.231Z,0
2016-10-06T00:36:18.974Z,0
2016-10-06T00:37:29.741Z,0
2016-10-06T00:38:40.465Z,0
2016-10-06T00:39:51.207Z,0
2016-10-06T00:41:02.453Z,0
2016-10-06T00:42:13.181Z,0
2016-10-06T00:43:23.898Z,0
2016-10-06T00:44:34.640Z,0
2016-10-06T00:45:45.369Z,0
2016-10-06T00:46:56.101Z,0
2016-10-06T00:48:06.825Z,0
2016-10-06T00:49:17.556Z,0
2016-10-06T00:50:28.309Z,0
2016-10-06T00:51:39.057Z,0
2016-10-06T00:52:49.798Z,0
2016-10-06T00:54:00.532Z,0
2016-10-06T00:55:11.561Z,0
2016-10-06T00:56:22.338Z,0
2016-10-06T00:57:33.621Z,0
2016-10-06T00:58:44.369Z,0
2016-10-06T00:59:55.092Z,0
2016-10-06T01:01:05.817Z,0
2016-10-06T01:02:16.542Z,0
2016-10-06T01:03:27.271Z,0
2016-10-06T01:04:38.509Z,0
2016-10-06T01:05:49.223Z,0
2016-10-06T01:07:00.943Z,0
2016-10-06T01:08:12.126Z,0
2016-10-06T01:09:22.814Z,0
2016-10-06T01:10:33.537Z,0
2016-10-06T01:11:44.256Z,0
2016-10-06T01:12:55.017Z,0
2016-10-06T01:14:05.747Z,0
2016-10-06T01:15:16.470Z,0
2016-10-06T01:16:27.718Z,0
2016-10-06T01:17:38.456Z,0
2016-10-06T01:18:49.212Z,0
2016-10-06T01:19:59.918Z,0
2016-10-06T01:21:10.613Z,0
2016-10-06T01:22:21.328Z,0
2016-10-06T01:23:32.042Z,0
2016-10-06T01:24:42.782Z,0
2016-10-06T01:25:53.529Z,0
2016-10-06T01:27:04.259Z,0
2016-10-06T01:28:14.989Z,0
2016-10-06T01:29:25.707Z,0
2016-10-06T01:30:36.437Z,0
2016-10-06T01:31:47.152Z,0
2016-10-06T01:32:57.916Z,0
2016-10-06T01:34:08.640Z,0
2016-10-06T01:35:19.388Z,0
2016-10-06T01:36:30.106Z,0
2016-10-06T01:37:41.341Z,0
2016-10-06T01:38:52.079Z,0
2016-10-06T01:40:02.809Z,0
2016-10-06T01:41:14.049Z,0
2016-10-06T01:42:24.770Z,0
2016-10-06T01:43:35.518Z,0
2016-10-06T01:44:46.276Z,0
2016-10-06T01:45:57.009Z,0
2016-10-06T01:47:07.749Z,0
2016-10-06T01:48:18.491Z,0
2016-10-06T01:49:29.233Z,0
2016-10-06T01:50:39.987Z,0
2016-10-06T01:51:50.721Z,0
2016-10-06T01:53:01.473Z,0
2016-10-06T01:54:12.187Z,0
2016-10-06T01:55:22.921Z,0
2016-10-06T01:56:33.639Z,0
2016-10-06T01:57:44.373Z,0
2016-10-06T01:58:55.086Z,0
2016-10-06T02:00:05.809Z,0
2016-10-06T02:01:16.571Z,0
2016-10-06T02:02:27.288Z,0
2016-10-06T02:03:38.022Z,0
2016-10-06T02:04:48.721Z,0
2016-10-06T02:05:59.463Z,0
2016-10-06T02:07:10.194Z,0
2016-10-06T02:08:20.910Z,0
2016-10-06T02:09:31.670Z,0
2016-10-06T02:10:42.415Z,0
2016-10-06T02:11:53.175Z,0
2016-10-06T02:13:03.910Z,0
2016-10-06T02:14:14.630Z,0
2016-10-06T02:15:25.347Z,0
2016-10-06T02:16:36.063Z,0
2016-10-06T02:17:46.777Z,0
2016-10-06T02:18:57.505Z,0
2016-10-06T02:20:08.234Z,0
2016-10-06T02:21:18.971Z,0
2016-10-06T02:22:29.721Z,0
2016-10-06T02:23:40.449Z,0
2016-10-06T02:24:51.203Z,0
2016-10-06T02:26:01.935Z,0
2016-10-06T02:27:12.634Z,0
2016-10-06T02:28:23.341Z,0
2016-10-06T02:29:34.033Z,0
2016-10-06T02:30:44.771Z,0
2016-10-06T02:31:55.494Z,0
2016-10-06T02:33:06.226Z,0
2016-10-06T02:34:16.955Z,0
2016-10-06T02:35:27.683Z,0
2016-10-06T02:36:38.441Z,0
2016-10-06T02:37:49.161Z,0
2016-10-06T02:38:59.912Z,0
2016-10-06T02:40:10.646Z,0
2016-10-06T02:41:21.382Z,0
2016-10-06T02:42:32.072Z,0
2016-10-06T02:43:42.805Z,0
2016-10-06T02:44:53.550Z,0
2016-10-06T02:46:04.290Z,0
2016-10-06T02:47:15.005Z,0
2016-10-06T02:48:25.738Z,0
2016-10-06T02:49:36.490Z,0
2016-10-06T02:50:47.231Z,0
2016-10-06T02:51:57.953Z,0
2016-10-06T02:53:08.684Z,0
2016-10-06T02:54:19.434Z,0
2016-10-06T02:55:30.166Z,0
2016-10-06T02:56:40.871Z,0
2016-10-06T02:57:51.606Z,0
2016-10-06T02:59:02.332Z,0
2016-10-06T03:00:13.056Z,0
2016-10-06T03:01:23.784Z,0
2016-10-06T03:02:35.082Z,0
2016-10-06T03:03:45.805Z,0
2016-10-06T03:04:56.538Z,0
2016-10-06T03:06:07.276Z,0
2016-10-06T03:07:18.021Z,0
2016-10-06T03:08:28.745Z,0
2016-10-06T03:09:39.469Z,0
2016-10-06T03:10:50.219Z,0
2016-10-06T03:12:01.466Z,0
2016-10-06T03:13:12.183Z,0
2016-10-06T03:14:22.915Z,0
2016-10-06T03:15:33.630Z,0
2016-10-06T03:16:44.384Z,0
2016-10-06T03:17:55.099Z,0
2016-10-06T03:19:05.830Z,0
2016-10-06T03:20:16.584Z,0
2016-10-06T03:21:27.325Z,0
2016-10-06T03:22:38.029Z,0
2016-10-06T03:23:48.764Z,0
2016-10-06T03:24:59.482Z,0
2016-10-06T03:26:10.211Z,0
2016-10-06T03:27:20.941Z,0
2016-10-06T03:28:31.678Z,0
2016-10-06T03:29:42.402Z,0
2016-10-06T03:30:53.124Z,0
2016-10-06T03:32:04.070Z,0
2016-10-06T03:33:15.372Z,0
2016-10-06T03:34:26.113Z,0
2016-10-06T03:35:37.362Z,0
2016-10-06T03:36:48.089Z,0
2016-10-06T03:37:58.828Z,0
2016-10-06T03:39:09.564Z,0
2016-10-06T03:40:20.282Z,0
2016-10-06T03:41:31.028Z,0
2016-10-06T03:42:41.761Z,0
2016-10-06T03:43:52.518Z,0
2016-10-06T03:45:03.248Z,0
2016-10-06T03:46:13.974Z,0
2016-10-06T03:47:24.697Z,0
2016-10-06T03:48:35.434Z,0
2016-10-06T03:49:46.185Z,0
2016-10-06T03:50:56.936Z,0
2016-10-06T03:52:07.653Z,0
2016-10-06T03:53:18.920Z,0
2016-10-06T03:54:29.637Z,0
2016-10-06T03:55:40.367Z,0
2016-10-06T03:56:51.678Z,0
2016-10-06T03:58:02.395Z,0
2016-10-06T03:59:13.630Z,0
2016-10-06T04:00:24.875Z,0
2016-10-06T04:01:35.615Z,0
2016-10-06T04:02:46.880Z,0
2016-10-06T04:03:57.601Z,0
2016-10-06T04:05:08.467Z,0
2016-10-06T04:06:19.712Z,0
2016-10-06T04:07:30.460Z,0
2016-10-06T04:08:41.201Z,0
2016-10-06T04:09:51.930Z,0
2016-10-06T04:11:02.653Z,0
2016-10-06T04:12:13.396Z,0
2016-10-06T04:13:24.146Z,0
2016-10-06T04:14:34.889Z,0
2016-10-06T04:15:45.629Z,0
2016-10-06T04:16:56.367Z,0
2016-10-06T04:18:07.091Z,0
2016-10-06T04:19:17.935Z,0
2016-10-06T04:20:28.666Z,0
2016-10-06T04:21:39.395Z,0
2016-10-06T04:22:50.148Z,0
2016-10-06T04:24:00.869Z,0
2016-10-06T04:25:11.609Z,0
2016-10-06T04:26:22.370Z,0
2016-10-06T04:27:33.084Z,0
2016-10-06T04:28:43.827Z,0
2016-10-06T04:29:54.552Z,0
2016-10-06T04:31:05.310Z,0
2016-10-06T04:32:16.028Z,0
2016-10-06T04:33:26.761Z,0
2016-10-06T04:34:37.477Z,0
2016-10-06T04:35:48.226Z,0
2016-10-06T04:36:59.496Z,0
2016-10-06T04:38:10.212Z,0
2016-10-06T04:39:20.945Z,0
2016-10-06T04:40:32.185Z,0
2016-10-06T04:41:42.911Z,0
2016-10-06T04:42:53.647Z,0
2016-10-06T04:44:04.391Z,0
2016-10-06T04:45:15.121Z,0
2016-10-06T04:46:25.864Z,0
2016-10-06T04:47:37.121Z,0
2016-10-06T04:48:47.878Z,0
2016-10-06T04:49:58.619Z,0
2016-10-06T04:51:09.329Z,0
2016-10-06T04:52:20.055Z,0
2016-10-06T04:53:30.777Z,0
2016-10-06T04:54:41.532Z,0
2016-10-06T04:55:52.247Z,0
2016-10-06T04:57:02.976Z,0
2016-10-06T04:58:13.693Z,0
2016-10-06T04:59:24.399Z,0
2016-10-06T05:00:35.145Z,0
2016-10-06T05:01:45.858Z,0
2016-10-06T05:02:56.586Z,0
2016-10-06T05:04:07.302Z,0
2016-10-06T05:05:18.024Z,0
2016-10-06T05:06:28.757Z,0
2016-10-06T05:07:39.480Z,0
2016-10-06T05:08:50.198Z,0
2016-10-06T05:10:01.427Z,0
2016-10-06T05:11:12.636Z,0
2016-10-06T05:12:23.349Z,0
2016-10-06T05:13:34.091Z,0
2016-10-06T05:14:44.839Z,0
2016-10-06T05:15:55.578Z,0
2016-10-06T05:17:06.303Z,0
2016-10-06T05:18:17.046Z,0
2016-10-06T05:19:27.784Z,0
2016-10-06T05:20:38.612Z,0
2016-10-06T05:21:49.330Z,0
2016-10-06T05:23:00.057Z,0
2016-10-06T05:24:10.789Z,0
2016-10-06T05:25:21.507Z,0
2016-10-06T05:26:32.238Z,0
2016-10-06T05:27:42.967Z,0
2016-10-06T05:28:53.705Z,0
2016-10-06T05:30:04.439Z,0
2016-10-06T05:31:15.161Z,0
2016-10-06T05:32:25.897Z,0
2016-10-06T05:33:36.624Z,0
2016-10-06T05:34:47.870Z,0
2016-10-06T05:35:58.601Z,0
2016-10-06T05:37:09.349Z,0
2016-10-06T05:38:20.049Z,0
2016-10-06T05:39:30.792Z,0
2016-10-06T05:40:41.508Z,0
2016-10-06T05:41:52.237Z,0
2016-10-06T05:43:02.976Z,0
2016-10-06T05:44:13.708Z,0
2016-10-06T05:45:24.462Z,0
2016-10-06T05:46:35.192Z,0
2016-10-06T05:47:45.932Z,0
2016-10-06T05:48:56.671Z,0
2016-10-06T05:50:07.409Z,0
2016-10-06T05:51:18.145Z,0
2016-10-06T05:52:28.891Z,0
2016-10-06T05:53:39.616Z,0
2016-10-06T05:54:50.333Z,0
2016-10-06T05:56:01.092Z,0
2016-10-06T05:57:12.320Z,0
2016-10-06T05:58:23.040Z,0
2016-10-06T05:59:33.794Z,0
2016-10-06T06:00:44.536Z,0
2016-10-06T06:01:55.277Z,0
2016-10-06T06:03:06.016Z,0
2016-10-06T06:04:16.743Z,0
2016-10-06T06:05:27.482Z,0
2016-10-06T06:06:38.217Z,0
2016-10-06T06:07:48.960Z,0
2016-10-06T06:08:59.681Z,0
2016-10-06T06:10:10.443Z,0
2016-10-06T06:11:21.184Z,0
2016-10-06T06:12:31.903Z,0
2016-10-06T06:13:42.630Z,0
2016-10-06T06:14:53.351Z,0
2016-10-06T06:16:04.079Z,0
2016-10-06T06:17:14.806Z,0
2016-10-06T06:18:25.530Z,0
2016-10-06T06:19:36.255Z,0
2016-10-06T06:20:47.000Z,0
2016-10-06T06:21:57.771Z,0
2016-10-06T06:23:08.475Z,0
2016-10-06T06:24:19.236Z,0
2016-10-06T06:25:29.980Z,0
2016-10-06T06:26:40.702Z,0
2016-10-06T06:27:51.434Z,0
2016-10-06T06:29:02.172Z,0
2016-10-06T06:30:12.910Z,0
2016-10-06T06:31:23.626Z,0
2016-10-06T06:32:34.346Z,0
2016-10-06T06:33:45.063Z,0
2016-10-06T06:34:55.795Z,0
2016-10-06T06:36:06.525Z,0
2016-10-06T06:37:17.271Z,0
2016-10-06T06:38:28.007Z,0
2016-10-06T06:39:38.727Z,0
2016-10-06T06:40:49.971Z,0
2016-10-06T06:42:00.709Z,0
2016-10-06T06:43:11.443Z,0
2016-10-06T06:44:22.155Z,0
2016-10-06T06:45:32.903Z,0
2016-10-06T06:46:43.648Z,0
2016-10-06T06:47:54.371Z,0
2016-10-06T06:49:05.086Z,0
2016-10-06T06:50:15.813Z,0
2016-10-06T06:51:26.527Z,0
2016-10-06T06:52:37.250Z,0
2016-10-06T06:53:47.984Z,0
2016-10-06T06:54:58.710Z,0
2016-10-06T06:56:09.445Z,0
2016-10-06T06:57:20.169Z,0
2016-10-06T06:58:30.917Z,0
2016-10-06T06:59:41.647Z,0
2016-10-06T07:00:52.930Z,0
2016-10-06T07:02:03.670Z,0
2016-10-06T07:03:14.407Z,0
2016-10-06T07:04:25.150Z,0
2016-10-06T07:05:35.901Z,0
2016-10-06T07:06:46.623Z,0
2016-10-06T07:07:57.346Z,0
2016-10-06T07:09:08.107Z,0
2016-10-06T07:10:18.833Z,0
2016-10-06T07:11:29.563Z,0
2016-10-06T07:12:40.292Z,0
2016-10-06T07:13:51.042Z,0
2016-10-06T07:15:01.779Z,0
2016-10-06T07:16:12.496Z,0
2016-10-06T07:17:23.234Z,0
2016-10-06T07:18:34.432Z,0
2016-10-06T07:19:45.324Z,0
2016-10-06T07:20:56.043Z,0
2016-10-06T07:22:07.279Z,0
2016-10-06T07:23:18.008Z,0
2016-10-06T07:24:28.736Z,0
2016-10-06T07:25:39.477Z,0
2016-10-06T07:26:50.243Z,0
2016-10-06T07:28:00.985Z,0
2016-10-06T07:29:11.714Z,0
2016-10-06T07:30:22.450Z,0
2016-10-06T07:31:33.184Z,0
2016-10-06T07:32:43.898Z,0
2016-10-06T07:33:54.644Z,0
2016-10-06T07:35:05.389Z,0
2016-10-06T07:36:16.124Z,0
2016-10-06T07:37:26.832Z,0
2016-10-06T07:38:37.541Z,0
2016-10-06T07:39:48.260Z,0
2016-10-06T07:40:58.987Z,0
2016-10-06T07:42:09.717Z,0
2016-10-06T07:43:20.674Z,0
2016-10-06T07:44:31.436Z,0
2016-10-06T07:45:42.174Z,0
2016-10-06T07:46:52.930Z,0
2016-10-06T07:48:03.680Z,0
2016-10-06T07:49:14.416Z,0
2016-10-06T07:50:25.153Z,0
2016-10-06T07:51:35.888Z,0
2016-10-06T07:52:47.145Z,0
2016-10-06T07:53:57.888Z,0
2016-10-06T07:55:08.596Z,0
2016-10-06T07:56:19.342Z,0
2016-10-06T07:57:30.082Z,0
2016-10-06T07:58:40.817Z,0
2016-10-06T07:59:51.535Z,0
2016-10-06T08:01:02.280Z,0
2016-10-06T08:02:13.029Z,0
2016-10-06T08:03:23.757Z,0
2016-10-06T08:04:34.474Z,0
2016-10-06T08:05:45.193Z,0
2016-10-06T08:06:56.935Z,0
2016-10-06T08:08:07.683Z,0
2016-10-06T08:09:18.408Z,0
2016-10-06T08:10:29.142Z,0
2016-10-06T08:11:39.892Z,0
2016-10-06T08:12:50.632Z,0
2016-10-06T08:14:01.389Z,0
2016-10-06T08:15:12.631Z,0
2016-10-06T08:16:23.392Z,0
2016-10-06T08:17:34.124Z,0
2016-10-06T08:18:44.867Z,0
2016-10-06T08:19:55.592Z,0
2016-10-06T08:21:06.322Z,0
2016-10-06T08:22:17.050Z,0
2016-10-06T08:23:27.785Z,0
2016-10-06T08:24:38.527Z,0
2016-10-06T08:25:49.253Z,0
2016-10-06T08:26:59.987Z,0
2016-10-06T08:28:10.713Z,0
2016-10-06T08:29:21.447Z,0
2016-10-06T08:30:32.199Z,0
2016-10-06T08:31:42.935Z,0
2016-10-06T08:32:53.662Z,0
2016-10-06T08:34:04.378Z,0
2016-10-06T08:35:15.613Z,0
2016-10-06T08:36:26.336Z,0
2016-10-06T08:37:37.067Z,5
2016-10-06T08:38:48.348Z,5
2016-10-06T08:39:59.082Z,5
2016-10-06T08:41:09.814Z,5
2016-10-06T08:42:20.546Z,5
2016-10-06T08:43:31.304Z,10
2016-10-06T08:44:42.064Z,10
2016-10-06T08:45:52.789Z,10
2016-10-06T08:47:03.529Z,15
2016-10-06T08:48:14.277Z,20
2016-10-06T08:49:25.001Z,20
2016-10-06T08:50:35.727Z,25
2016-10-06T08:51:46.454Z,30
2016-10-06T08:52:57.187Z,35
2016-10-06T08:54:07.909Z,40
2016-10-06T08:55:18.634Z,45
2016-10-06T08:56:29.373Z,55
2016-10-06T08:57:40.099Z,60
2016-10-06T08:58:50.831Z,70
2016-10-06T09:00:01.577Z,75
2016-10-06T09:01:12.330Z,85
2016-10-06T09:02:23.070Z,95
2016-10-06T09:03:33.787Z,105
2016-10-06T09:04:44.553Z,105
2016-10-06T09:05:55.278Z,105
2016-10-06T09:07:06.012Z,95
2016-10-06T09:08:16.750Z,100
2016-10-06T09:09:27.459Z,105
2016-10-06T09:10:38.177Z,120
2016-10-06T09:11:49.437Z,135
2016-10-06T09:13:00.165Z,165
2016-10-06T09:14:10.904Z,180
2016-10-06T09:15:21.643Z,155
2016-10-06T09:16:32.384Z,130
2016-10-06T09:17:43.098Z,110
2016-10-06T09:18:53.848Z,105
2016-10-06T09:20:04.573Z,105
2016-10-06T09:21:15.310Z,115
2016-10-06T09:22:26.056Z,135
2016-10-06T09:23:36.769Z,150
2016-10-06T09:24:47.510Z,155
2016-10-06T09:25:58.259Z,170
2016-10-06T09:27:09.000Z,210
2016-10-06T09:28:20.071Z,255
2016-10-06T09:29:30.796Z,220
2016-10-06T09:30:41.502Z,225
2016-10-06T09:31:52.227Z,230
2016-10-06T09:33:02.937Z,225
2016-10-06T09:34:13.680Z,220
2016-10-06T09:35:24.420Z,230
2016-10-06T09:36:35.141Z,240
2016-10-06T09:37:45.896Z,260
2016-10-06T09:38:56.627Z,270
2016-10-06T09:40:07.362Z,290
2016-10-06T09:41:18.091Z,300
2016-10-06T09:42:28.826Z,285
2016-10-06T09:43:39.581Z,270
2016-10-06T09:44:50.303Z,270
2016-10-06T09:46:01.027Z,275
2016-10-06T09:47:11.750Z,295
2016-10-06T09:48:22.487Z,325
2016-10-06T09:49:33.214Z,290
2016-10-06T09:50:43.954Z,335
2016-10-06T09:51:54.674Z,390
2016-10-06T09:53:05.425Z,440
2016-10-06T09:54:16.175Z,490
2016-10-06T09:55:26.905Z,500
2016-10-06T09:56:37.647Z,485
2016-10-06T09:57:48.389Z,495
2016-10-06T09:58:59.129Z,475
2016-10-06T10:00:09.882Z,425
2016-10-06T10:01:21.149Z,385
2016-10-06T10:02:31.882Z,395
2016-10-06T10:03:42.609Z,440
2016-10-06T10:04:53.348Z,515
2016-10-06T10:06:04.083Z,555
2016-10-06T10:07:15.318Z,555
2016-10-06T10:08:26.067Z,770
2016-10-06T10:09:36.787Z,500
2016-10-06T10:10:47.542Z,460
2016-10-06T10:11:58.270Z,465
2016-10-06T10:13:09.029Z,495
2016-10-06T10:14:19.732Z,510
2016-10-06T10:15:30.997Z,540
2016-10-06T10:16:41.755Z,610
2016-10-06T10:17:52.503Z,725
2016-10-06T10:19:03.242Z,865
2016-10-06T10:20:14.007Z,1115
2016-10-06T10:21:24.727Z,1135
2016-10-06T10:22:35.549Z,1720
2016-10-06T10:23:46.272Z,1250
2016-10-06T10:24:57.009Z,1090
2016-10-06T10:26:07.732Z,785
2016-10-06T10:27:18.459Z,735
2016-10-06T10:28:29.175Z,630
2016-10-06T10:29:39.919Z,560
2016-10-06T10:30:50.677Z,565
2016-10-06T10:32:01.423Z,700
2016-10-06T10:33:12.221Z,985
2016-10-06T10:34:22.972Z,1500
2016-10-06T10:35:33.698Z,1925
2016-10-06T10:36:44.444Z,1970
2016-10-06T10:37:55.197Z,2015
2016-10-06T10:39:05.931Z,2105
2016-10-06T10:40:16.663Z,2035
2016-10-06T10:41:27.394Z,2020
2016-10-06T10:42:38.125Z,1695
2016-10-06T10:43:48.871Z,1895
2016-10-06T10:44:59.610Z,2010
2016-10-06T10:46:10.424Z,2025
2016-10-06T10:47:21.192Z,1930
2016-10-06T10:48:31.979Z,2065
2016-10-06T10:49:42.729Z,2015
2016-10-06T10:50:53.484Z,1960
2016-10-06T10:52:04.277Z,1795
2016-10-06T10:53:15.021Z,1805
2016-10-06T10:54:25.768Z,1035
2016-10-06T10:55:36.539Z,1075
2016-10-06T10:56:47.290Z,1185
2016-10-06T10:57:58.540Z,1220
2016-10-06T10:59:09.804Z,1265
2016-10-06T11:00:20.545Z,1435
2016-10-06T11:01:31.299Z,1185
2016-10-06T11:02:42.360Z,2160
2016-10-06T11:03:53.135Z,1385
2016-10-06T11:05:03.872Z,1080
2016-10-06T11:06:14.619Z,1855
2016-10-06T11:07:25.345Z,2070
2016-10-06T11:08:36.594Z,2250
2016-10-06T11:09:47.326Z,1165
2016-10-06T11:10:58.052Z,2465
2016-10-06T11:12:09.409Z,1860
2016-10-06T11:13:20.151Z,2655
2016-10-06T11:14:31.411Z,2685
2016-10-06T11:15:42.161Z,2565
2016-10-06T11:16:52.931Z,2560
2016-10-06T11:18:03.663Z,2580
2016-10-06T11:19:14.439Z,2550
2016-10-06T11:20:25.168Z,2465
2016-10-06T11:21:35.905Z,2470
2016-10-06T11:22:46.644Z,2590
2016-10-06T11:23:57.367Z,2365
2016-10-06T11:25:08.120Z,2585
2016-10-06T11:26:18.850Z,2570
2016-10-06T11:27:29.578Z,2530
2016-10-06T11:28:40.332Z,2530
2016-10-06T11:29:51.588Z,2570
2016-10-06T11:31:02.332Z,2490
2016-10-06T11:32:13.064Z,2540
2016-10-06T11:33:23.824Z,2505
2016-10-06T11:34:34.562Z,2580
2016-10-06T11:35:45.298Z,2530
2016-10-06T11:36:56.490Z,2685
2016-10-06T11:38:07.272Z,2705
2016-10-06T11:39:18.001Z,2705
2016-10-06T11:40:28.743Z,2550
2016-10-06T11:41:39.483Z,2660
2016-10-06T11:42:50.214Z,2700
2016-10-06T11:44:00.961Z,2675
2016-10-06T11:45:11.686Z,2960
2016-10-06T11:46:22.429Z,2900
2016-10-06T11:47:33.165Z,2925
2016-10-06T11:48:43.911Z,3045
2016-10-06T11:49:54.674Z,3160
2016-10-06T11:51:05.404Z,3105
2016-10-06T11:52:16.132Z,2780
2016-10-06T11:53:26.883Z,2845
2016-10-06T11:54:37.655Z,2750
2016-10-06T11:55:48.393Z,2900
2016-10-06T11:56:59.133Z,2785
2016-10-06T11:58:09.869Z,2680
2016-10-06T11:59:20.614Z,2615
2016-10-06T12:00:31.363Z,2590
2016-10-06T12:01:42.118Z,2560
2016-10-06T12:02:52.881Z,2740
2016-10-06T12:04:04.132Z,2695
2016-10-06T12:05:15.404Z,2565
2016-10-06T12:06:26.354Z,2540
2016-10-06T12:07:37.086Z,2350
2016-10-06T12:08:47.837Z,2575
2016-10-06T12:09:59.107Z,2945
2016-10-06T12:11:09.935Z,2960
2016-10-06T12:12:20.680Z,2960
2016-10-06T12:13:31.423Z,2840
2016-10-06T12:14:42.163Z,3045
2016-10-06T12:15:52.908Z,2985
2016-10-06T12:17:03.638Z,3005
2016-10-06T12:18:14.440Z,3130
2016-10-06T12:19:25.186Z,2980
2016-10-06T12:20:35.935Z,2980
2016-10-06T12:21:46.668Z,3155
2016-10-06T12:22:57.973Z,3070
2016-10-06T12:24:08.707Z,3220
2016-10-06T12:25:21.034Z,3230
2016-10-06T12:26:32.294Z,3150
2016-10-06T12:27:43.041Z,3060
2016-10-06T12:28:53.818Z,3250
2016-10-06T12:30:04.568Z,3280
2016-10-06T12:31:15.318Z,3420
2016-10-06T12:32:26.089Z,3370
2016-10-06T12:33:36.839Z,3265
2016-10-06T12:34:47.592Z,3335
2016-10-06T12:35:58.345Z,3445
2016-10-06T12:37:09.072Z,3330
2016-10-06T12:38:19.809Z,3345
2016-10-06T12:39:30.551Z,3420
2016-10-06T12:40:41.280Z,3580
2016-10-06T12:41:52.021Z,3370
2016-10-06T12:43:02.754Z,3430
2016-10-06T12:44:13.502Z,3560
2016-10-06T12:45:24.243Z,3415
2016-10-06T12:46:34.989Z,3445
2016-10-06T12:47:45.744Z,3570
2016-10-06T12:48:56.470Z,3545
2016-10-06T12:50:07.221Z,3595
2016-10-06T12:51:17.977Z,3520
2016-10-06T12:52:28.748Z,3495
2016-10-06T12:53:40.017Z,3590
2016-10-06T12:54:50.771Z,3030
2016-10-06T12:56:01.510Z,2930
2016-10-06T12:57:12.262Z,1305
2016-10-06T12:58:23.006Z,3815
2016-10-06T12:59:33.768Z,3880
2016-10-06T13:00:45.048Z,3805
2016-10-06T13:01:55.794Z,3895
2016-10-06T13:03:06.541Z,3675
2016-10-06T13:04:17.292Z,3605
2016-10-06T13:05:28.031Z,3785
2016-10-06T13:06:38.766Z,4100
2016-10-06T13:07:49.522Z,3775
2016-10-06T13:09:00.273Z,975
2016-10-06T13:10:11.025Z,3620
2016-10-06T13:11:21.765Z,3730
2016-10-06T13:12:32.509Z,3905
2016-10-06T13:13:43.272Z,4065
2016-10-06T13:14:54.013Z,3895
2016-10-06T13:16:05.292Z,3970
2016-10-06T13:17:16.043Z,4140
2016-10-06T13:18:26.783Z,4350
2016-10-06T13:19:37.549Z,4230
2016-10-06T13:20:48.798Z,4465
2016-10-06T13:21:59.556Z,1400
2016-10-06T13:23:10.300Z,1435
2016-10-06T13:24:21.065Z,1470
2016-10-06T13:25:31.807Z,1450
2016-10-06T13:26:42.572Z,1370
2016-10-06T13:27:53.355Z,1170
2016-10-06T13:29:04.606Z,1110
2016-10-06T13:30:15.379Z,1050
2016-10-06T13:31:26.129Z,1315
2016-10-06T13:32:36.870Z,4600
2016-10-06T13:33:47.614Z,4365
2016-10-06T13:34:58.969Z,4100
2016-10-06T13:36:09.725Z,3745
2016-10-06T13:37:20.513Z,1345
2016-10-06T13:38:31.704Z,1455
2016-10-06T13:39:42.512Z,3585
2016-10-06T13:40:53.295Z,1995
2016-10-06T13:42:04.075Z,4830
2016-10-06T13:43:14.835Z,4915
2016-10-06T13:44:25.619Z,1805
2016-10-06T13:45:36.376Z,1740
2016-10-06T13:46:47.136Z,1865
2016-10-06T13:47:57.892Z,2935
2016-10-06T13:49:08.640Z,2005
2016-10-06T13:50:19.924Z,1625
2016-10-06T13:51:30.688Z,4905
2016-10-06T13:52:41.466Z,4495
2016-10-06T13:53:52.227Z,3965
2016-10-06T13:55:03.330Z,5015
2016-10-06T13:56:14.082Z,2395
2016-10-06T13:57:24.822Z,5165
2016-10-06T13:58:35.574Z,3770
2016-10-06T13:59:46.308Z,2545
2016-10-06T14:00:57.598Z,1780
2016-10-06T14:02:08.370Z,1515
2016-10-06T14:03:19.131Z,3205
2016-10-06T14:04:29.876Z,4945
2016-10-06T14:05:40.635Z,4205
2016-10-06T14:06:51.382Z,3835
2016-10-06T14:08:02.142Z,4825
2016-10-06T14:09:12.928Z,3510
2016-10-06T14:10:23.688Z,3920
2016-10-06T14:11:34.439Z,1450
2016-10-06T14:12:45.186Z,1355
2016-10-06T14:13:56.477Z,4680
2016-10-06T14:15:07.230Z,1610
2016-10-06T14:16:17.977Z,1370
2016-10-06T14:17:29.246Z,1470
2016-10-06T14:18:39.969Z,1920
2016-10-06T14:19:51.232Z,1740
2016-10-06T14:21:02.487Z,1550
2016-10-06T14:22:13.739Z,1985
2016-10-06T14:23:24.464Z,3795
2016-10-06T14:24:35.205Z,2440
2016-10-06T14:25:45.954Z,4935
2016-10-06T14:26:56.703Z,5260
2016-10-06T14:28:08.084Z,1820
2016-10-06T14:29:18.853Z,1545
2016-10-06T14:30:29.805Z,1440
2016-10-06T14:31:40.547Z,1395
2016-10-06T14:32:51.303Z,1270
2016-10-06T14:34:02.051Z,1510
2016-10-06T14:35:12.787Z,1815
2016-10-06T14:36:23.528Z,4075
2016-10-06T14:37:34.245Z,2185
2016-10-06T14:38:45.504Z,2110
2016-10-06T14:39:56.281Z,1735
2016-10-06T14:41:07.034Z,1490
2016-10-06T14:42:17.798Z,1430
2016-10-06T14:43:28.527Z,1430
2016-10-06T14:44:39.281Z,1535
2016-10-06T14:45:50.034Z,4415
2016-10-06T14:47:01.836Z,1400
2016-10-06T14:48:12.583Z,1620
2016-10-06T14:49:23.385Z,1615
2016-10-06T14:50:34.101Z,1475
2016-10-06T14:51:44.880Z,4865
2016-10-06T14:52:55.609Z,4085
2016-10-06T14:54:06.349Z,2485
2016-10-06T14:55:17.081Z,1750
2016-10-06T14:56:27.888Z,4360
2016-10-06T14:57:38.612Z,4615
2016-10-06T14:58:49.380Z,1935
2016-10-06T15:00:00.146Z,4800
2016-10-06T15:01:11.437Z,4930
2016-10-06T15:02:22.167Z,4780
2016-10-06T15:03:32.917Z,1165
2016-10-06T15:04:43.684Z,1790
2016-10-06T15:05:54.435Z,1300
2016-10-06T15:07:05.236Z,1165
2016-10-06T15:08:15.994Z,1170
2016-10-06T15:09:26.734Z,1290
2016-10-06T15:10:37.468Z,2410
2016-10-06T15:11:48.241Z,2230
2016-10-06T15:12:58.964Z,1835
2016-10-06T15:14:10.257Z,1505
2016-10-06T15:15:21.026Z,1275
2016-10-06T15:16:31.758Z,1670
2016-10-06T15:17:42.493Z,4665
2016-10-06T15:18:53.254Z,3505
2016-10-06T15:20:03.990Z,1665
2016-10-06T15:21:14.749Z,4895
2016-10-06T15:22:25.491Z,4710
2016-10-06T15:23:36.239Z,4660
2016-10-06T15:24:46.976Z,4540
2016-10-06T15:25:57.753Z,4380
2016-10-06T15:27:09.009Z,4210
2016-10-06T15:28:19.765Z,4530
2016-10-06T15:29:30.498Z,4465
2016-10-06T15:30:41.257Z,4385
2016-10-06T15:31:52.030Z,1755
2016-10-06T15:33:02.784Z,1390
2016-10-06T15:34:14.054Z,1435
2016-10-06T15:35:25.306Z,2850
2016-10-06T15:36:36.053Z,4495
2016-10-06T15:37:47.334Z,2255
2016-10-06T15:39:56.565Z,4575
2016-10-06T15:41:07.355Z,4760
2016-10-06T15:42:18.107Z,4800
2016-10-06T15:43:28.844Z,4695
2016-10-06T15:44:39.581Z,2555
2016-10-06T15:45:50.384Z,1580
2016-10-06T15:47:01.114Z,3485
2016-10-06T15:48:11.875Z,4680
2016-10-06T15:49:20.474Z,4350
2016-10-06T15:50:31.220Z,4155
2016-10-06T15:51:41.941Z,4190
2016-10-06T15:52:52.649Z,4200
2016-10-06T15:54:03.400Z,4200
2016-10-06T15:55:14.138Z,4295
2016-10-06T15:56:24.884Z,4500
2016-10-06T15:57:35.616Z,4340
2016-10-06T15:58:46.331Z,4305
2016-10-06T15:59:57.059Z,4295
2016-10-06T16:01:07.825Z,4375
2016-10-06T16:02:19.137Z,4405
2016-10-06T16:03:29.887Z,2170
2016-10-06T16:04:40.659Z,1645
2016-10-06T16:05:51.887Z,3135
2016-10-06T16:07:02.618Z,4335
2016-10-06T16:08:13.364Z,4750
2016-10-06T16:09:24.074Z,1590
2016-10-06T16:10:34.798Z,4190
2016-10-06T16:11:45.520Z,2850
2016-10-06T16:12:56.293Z,3830
2016-10-06T16:14:07.001Z,1360
2016-10-06T16:15:17.727Z,4595
2016-10-06T16:16:28.441Z,4175
2016-10-06T16:17:39.678Z,4320
2016-10-06T16:18:50.382Z,4345
2016-10-06T16:20:01.093Z,4300
2016-10-06T16:21:11.817Z,4480
2016-10-06T16:22:22.545Z,1775
2016-10-06T16:23:33.813Z,4280
2016-10-06T16:24:44.555Z,4235
2016-10-06T16:25:55.309Z,4125
2016-10-06T16:27:06.038Z,4320
2016-10-06T16:28:17.285Z,3170
2016-10-06T16:29:28.021Z,4295
2016-10-06T16:30:38.759Z,4270
2016-10-06T16:31:49.488Z,4240
2016-10-06T16:33:00.782Z,4435
2016-10-06T16:34:11.519Z,4225
2016-10-06T16:35:22.259Z,4055
2016-10-06T16:36:33.008Z,4280
2016-10-06T16:37:43.730Z,1675
2016-10-06T16:38:54.481Z,1485
2016-10-06T16:40:05.218Z,1380